Ada, OH (45810)

8:37 AM EDT on September 05, 2015 (GMT -0400)
Ada | | Change Station
CLOSE
Current Station
Personal Weather Station
Location: Ada, OH
Elevation: 912 ft
Nearby Weather Stations

Elev 912 ft 40.82 °N, 83.86 °W | Updated 8 seconds ago

Partly Cloudy
Partly Cloudy
67.5 °F
Feels Like 67.5 °F
N
8.0
Wind Variable Wind from SE
Gusts 11.0 mph

Today
High -- | Low -- °F
--% Chance of Precip.
Yesterday
High -- | Low -- °F
Precip. -- in
7:05 AM 8:01 PM
Waning Gibbous, 49% visible
Pressure 30.17 in
Visibility 10.0 miles
Clouds Scattered Clouds 6500 ft
Mostly Cloudy 11000 ft
Dew Point 65 °F
Humidity 93%
Rainfall 0.10 in
Snow Depth Not available.
UV 0 out of 12
Pollen 9.50 out of 12
Air Quality Not available.
Flu Activity Not available.
SPECI KAOH 051227Z AUTO VRB03KT 10SM -TSRA SCT065 BKN110 19/18 A3017 RMK AO2 LTG DSNT NE RAB24 TSB21 P0000 T01940178 $
Pressure 30.17 in
Visibility 10.0 miles
Clouds Scattered Clouds 6500 ft
Mostly Cloudy 11000 ft
Dew Point 65 °F
Humidity 93%
Rainfall 0.10 in
Snow Depth Not available.
UV 0 out of 12
Pollen 9.50 out of 12
Air Quality Not available.
Flu Activity Not available.
SPECI KAOH 051227Z AUTO VRB03KT 10SM -TSRA SCT065 BKN110 19/18 A3017 RMK AO2 LTG DSNT NE RAB24 TSB21 P0000 T01940178 $

10-Day Weather Forecast

×

Almanac

Astronomy

Sep. 05, 2015 Rise Set
Actual Time
Civil Twilight
Nautical Twilight
Astronomical Twilight
Moon
Length of Visible Light
Length of Day
Tomorrow will be .
, % of the Moon is Illuminated

Today's Extremes

State Highs State Lows

Community

WunderPhotos

Upload Photos

1,852,454 photos uploaded!

WunderBlogs® & News

Nearby

Air Quality

  Air Quality AQ Index Pollutant
Not available.

Snow Depth

Station Depth Elevation

Earthquake Activity

City Distance Mag. Time & Date
Minimum magnitude displayed is 2.5.

Coastal Water Temperatures

Place Temperature

Stations

Nearby Weather Stations

Station Location Temp. Windchill Dew Point Humidity Wind Precip. Elev Updated Type